Capt. Harry — WDC3690 — position and weather

sailwx.info

Track history (hours):
 
Tides and Currents Weather Stations Pressure Air Temp Water Temp Dewpoint Dewpoint Depression Visibility Wind Speed Wind Dir Waves Ship Positions

Capt. Harry

Owner: Wilmington Tug, Inc., New Castle, DE. More information available from US FCC via Universal Licensing System and Coast Guard Vessel Documentation Center.

Last reported at 2015-Mar-01 08:18 UTC. Time now 2015-Mar-04 15:20 UTC.
Position N 39°53' W 075°11'.

Type: Tug. MMSI: 367012530.

Date/timePositionNaut miles runAvg speedWind from/ knotsBaromVisibWave heightAir tempDewpointWater temp
2015-Mar-01 08:18N 39°53' W 075°11'0 0.0
2015-Mar-01 07:33N 39°53' W 075°11'0 0.0
2015-Mar-01 06:33N 39°53' W 075°11'0 0.0
2015-Mar-01 05:33N 39°53' W 075°11'0 0.0
2015-Mar-01 04:33N 39°53' W 075°11'0 0.0
2015-Mar-01 03:33N 39°53' W 075°11'0 0.0
2015-Mar-01 02:33N 39°53' W 075°11'0 0.0
2015-Mar-01 01:33N 39°53' W 075°11'0 0.0
2015-Mar-01 00:33N 39°53' W 075°11'0 0.0
2015-Feb-28 23:33N 39°53' W 075°11'0 0.0
2015-Feb-28 22:33N 39°53' W 075°11'0 0.0
2015-Feb-28 21:33N 39°53' W 075°11'0 0.0
2015-Feb-28 20:33N 39°53' W 075°11'0 0.0
2015-Feb-28 19:33N 39°53' W 075°11'0 0.0
2015-Feb-28 18:33N 39°53' W 075°11'0 0.0
2015-Feb-28 17:33N 39°53' W 075°11'0 0.0
2015-Feb-28 16:33N 39°53' W 075°11'0 0.0
2015-Feb-28 15:33N 39°53' W 075°11'0 0.0
2015-Feb-28 14:33N 39°53' W 075°11'0 0.0
2015-Feb-28 13:33N 39°53' W 075°11'0 0.0
2015-Feb-28 12:33N 39°53' W 075°11'0 0.0
2015-Feb-28 11:33N 39°53' W 075°11'0 0.0
2015-Feb-28 10:33N 39°53' W 075°11'0 0.0
2015-Feb-28 09:33N 39°53' W 075°11'0 0.0
2015-Feb-28 08:33N 39°53' W 075°11'0 0.0
2015-Feb-28 07:33N 39°53' W 075°11'0 0.0
2015-Feb-28 06:33N 39°53' W 075°11'0 0.0
2015-Feb-28 05:33N 39°53' W 075°11'0 0.0
2015-Feb-28 04:33N 39°53' W 075°11'0 0.0
2015-Feb-28 03:33N 39°53' W 075°11'0 0.0
2015-Feb-28 02:33N 39°53' W 075°11'0 0.0
2015-Feb-28 01:33N 39°53' W 075°11'0 0.0
2015-Feb-28 00:33N 39°53' W 075°11'0 0.0
2015-Feb-27 23:33N 39°53' W 075°11'0 0.0
2015-Feb-27 22:33N 39°53' W 075°11'0 0.0
2015-Feb-27 21:33N 39°53' W 075°11'0 0.0
2015-Feb-27 20:33N 39°53' W 075°11'0 0.0
2015-Feb-27 19:33N 39°53' W 075°11'2 1.8
2015-Feb-27 18:33N 39°53' W 075°09'7 6.8
2015-Feb-27 17:33N 39°59' W 075°04'1 0.7
2015-Feb-27 16:33N 39°59' W 075°05'0 0.0
2015-Feb-27 15:33N 39°59' W 075°05'0 0.0
2015-Feb-27 14:33N 39°59' W 075°05'0 0.0
2015-Feb-27 13:33N 39°59' W 075°05'5 4.6
2015-Feb-27 12:33N 39°55' W 075°08'6 5.7
2015-Feb-27 11:33N 39°51' W 075°14'1 0.7
2015-Feb-27 10:33N 39°51' W 075°15'1 1.0
2015-Feb-27 09:33N 39°51' W 075°16'0 0.0
2015-Feb-27 08:33N 39°51' W 075°16'0 0.0
2015-Feb-27 07:33N 39°51' W 075°16'0 0.0
2015-Feb-27 06:33N 39°51' W 075°16'0 0.0
2015-Feb-27 05:33N 39°51' W 075°16'0 0.0
2015-Feb-27 04:33N 39°51' W 075°16'0 0.4
2015-Feb-27 03:33N 39°51' W 075°16'0 0.0
2015-Feb-27 02:33N 39°51' W 075°16'1 1.3
2015-Feb-27 01:33N 39°51' W 075°18'2 1.7
2015-Feb-27 00:33N 39°51' W 075°16'0 0.0
2015-Feb-26 23:33N 39°51' W 075°16'0 0.0
2015-Feb-26 22:33N 39°51' W 075°16'0 0.0
2015-Feb-26 21:33N 39°51' W 075°16'3 2.8
2015-Feb-26 20:33N 39°51' W 075°19'3 2.9
2015-Feb-26 19:33N 39°50' W 075°22'2 1.8
2015-Feb-26 18:33N 39°49' W 075°24'0 0.5
2015-Feb-26 17:33N 39°49' W 075°25'0 0.0
2015-Feb-26 16:33N 39°49' W 075°25'0 0.0
2015-Feb-26 15:33N 39°49' W 075°25'0 0.0
2015-Feb-26 14:33N 39°49' W 075°25'0 0.0
2015-Feb-26 13:33N 39°49' W 075°25'1 1.0
2015-Feb-26 12:33N 39°49' W 075°24'0 0.5
2015-Feb-26 11:33N 39°49' W 075°23'1 1.4
2015-Feb-26 10:33N 39°48' W 075°25'0 0.2
2015-Feb-26 09:33N 39°49' W 075°25'0 0.0
2015-Feb-26 08:33N 39°49' W 075°25'3 2.5
2015-Feb-26 07:31N 39°50' W 075°22'5 2.5
2015-Feb-26 05:33N 39°51' W 075°16'0 0.0
2015-Feb-26 04:33N 39°51' W 075°16'0 0.0
2015-Feb-26 03:24N 39°51' W 075°16'0 0.2
2015-Feb-26 02:33N 39°51' W 075°16'2 1.8
2015-Feb-26 01:33N 39°51' W 075°14'5 4.7
2015-Feb-26 00:33N 39°51' W 075°20'4 4.1
2015-Feb-25 23:33N 39°49' W 075°24'1 1.0
2015-Feb-25 22:33N 39°49' W 075°23'1 0.9
2015-Feb-25 21:33N 39°49' W 075°24'6 5.8
2015-Feb-25 20:33N 39°45' W 075°30'2 1.9
2015-Feb-25 19:33N 39°43' W 075°31'0 0.3
2015-Feb-25 18:33N 39°43' W 075°31'0 0.0
2015-Feb-25 17:33N 39°43' W 075°31'0 0.0
2015-Feb-25 16:33N 39°43' W 075°31'0 0.0
2015-Feb-25 15:33N 39°43' W 075°31'0 0.0
2015-Feb-25 14:33N 39°43' W 075°31'0 0.0
2015-Feb-25 13:33N 39°43' W 075°31'0 0.0
2015-Feb-25 12:33N 39°43' W 075°31'0 0.0
2015-Feb-25 11:33N 39°43' W 075°31'0 0.0
2015-Feb-25 10:33N 39°43' W 075°31'0 0.0
2015-Feb-25 09:33N 39°43' W 075°31'0 0.0
2015-Feb-25 08:33N 39°43' W 075°31'0 0.0
2015-Feb-25 07:33N 39°43' W 075°31'0 0.0
2015-Feb-25 06:33N 39°43' W 075°31'0 0.0
2015-Feb-25 05:33N 39°43' W 075°31'0 0.0
2015-Feb-25 04:33N 39°43' W 075°31'0 0.0
2015-Feb-25 03:33N 39°43' W 075°31'0 0.0
2015-Feb-25 02:33N 39°43' W 075°31'0 0.0
2015-Feb-25 01:33N 39°43' W 075°31'0 0.0
2015-Feb-25 00:33N 39°43' W 075°31'0 0.0
2015-Feb-24 23:33N 39°43' W 075°31'0 0.0
2015-Feb-24 22:33N 39°43' W 075°31'0 0.0
2015-Feb-24 21:33N 39°43' W 075°31'0 0.3
2015-Feb-24 20:33N 39°43' W 075°31'0 0.3
2015-Feb-24 19:33N 39°43' W 075°31'0 0.0
2015-Feb-24 18:33N 39°43' W 075°31'2 2.2
2015-Feb-24 17:33N 39°41' W 075°31'7 6.6
2015-Feb-24 16:33N 39°35' W 075°35'0 0.0
2015-Feb-24 15:33N 39°35' W 075°35'1 1.0
2015-Feb-24 14:33N 39°35' W 075°34'9 8.9
2015-Feb-24 13:33N 39°43' W 075°31'0 0.0
2015-Feb-24 12:33N 39°43' W 075°31'0 0.0
2015-Feb-24 11:33N 39°43' W 075°31'0 0.0
2015-Feb-24 10:33N 39°43' W 075°31'0 0.0
2015-Feb-24 09:33N 39°43' W 075°31'0 0.0
2015-Feb-24 08:33N 39°43' W 075°31'0 0.0
2015-Feb-24 07:33N 39°43' W 075°31'0 0.2
2015-Feb-24 06:33N 39°43' W 075°31'0 0.4
2015-Feb-24 05:33N 39°43' W 075°32'0 0.0
2015-Feb-24 04:33N 39°43' W 075°32'0 0.0
2015-Feb-24 03:33N 39°43' W 075°32'0 0.0
2015-Feb-24 02:33N 39°43' W 075°32'0 0.0
2015-Feb-24 01:33N 39°43' W 075°32'0 0.0
2015-Feb-24 00:33N 39°43' W 075°32'0 0.0
2015-Feb-23 23:33N 39°43' W 075°32'0 0.0
2015-Feb-23 22:33N 39°43' W 075°32'0 0.0
2015-Feb-23 21:33N 39°43' W 075°32'0 0.0
2015-Feb-23 20:33N 39°43' W 075°32'0 0.0
2015-Feb-23 19:33N 39°43' W 075°32'1 0.5
2015-Feb-23 18:34N 39°43' W 075°31'0 0.5
2015-Feb-23 17:33N 39°43' W 075°31'0 0.4
2015-Feb-23 16:33N 39°43' W 075°31'0 0.0
2015-Feb-23 15:33N 39°43' W 075°31'0 0.0
2015-Feb-23 14:33N 39°43' W 075°31'0 0.0
2015-Feb-23 13:33N 39°43' W 075°31'0 0.0
2015-Feb-23 12:33N 39°43' W 075°31'0 0.0
2015-Feb-23 11:33N 39°43' W 075°31'0 0.0
2015-Feb-23 10:33N 39°43' W 075°31'0 0.0
2015-Feb-23 09:33N 39°43' W 075°31'0 0.0
2015-Feb-23 08:33N 39°43' W 075°31'0 0.0
2015-Feb-23 07:33N 39°43' W 075°31'0 0.0
2015-Feb-23 06:33N 39°43' W 075°31'0 0.0
2015-Feb-23 05:33N 39°43' W 075°31'0 0.0
2015-Feb-23 04:33N 39°43' W 075°31'0 0.4
2015-Feb-23 03:33N 39°43' W 075°31'0 0.2
2015-Feb-23 02:33N 39°43' W 075°31'0 0.2
2015-Feb-23 01:33N 39°43' W 075°31'0 0.0
2015-Feb-23 00:33N 39°43' W 075°31'0 0.0
2015-Feb-22 23:33N 39°43' W 075°31'0 0.2
2015-Feb-22 22:33N 39°43' W 075°31'1 1.4
2015-Feb-22 21:33N 39°42' W 075°31'1 1.4
2015-Feb-22 20:33N 39°43' W 075°31'0 0.3
2015-Feb-22 19:33N 39°43' W 075°31'0 0.1
2015-Feb-22 18:33N 39°43' W 075°31'7 6.6
2015-Feb-22 17:33N 39°48' W 075°25'1 0.5
2015-Feb-22 16:33N 39°48' W 075°25'1 0.7
2015-Feb-22 15:33N 39°49' W 075°25'0 0.0
2015-Feb-22 14:33N 39°49' W 075°25'0 0.4
2015-Feb-22 13:33N 39°48' W 075°25'0 0.0
2015-Feb-22 12:33N 39°48' W 075°25'0 0.0
2015-Feb-22 11:33N 39°48' W 075°25'0 0.0
2015-Feb-22 10:33N 39°48' W 075°25'0 0.0
2015-Feb-22 09:33N 39°48' W 075°25'0 0.0
2015-Feb-22 08:33N 39°48' W 075°25'0 0.0
2015-Feb-22 07:33N 39°48' W 075°25'0 0.0
2015-Feb-22 06:33N 39°48' W 075°25'1 1.2
2015-Feb-22 05:33N 39°48' W 075°27'6 5.7
2015-Feb-22 04:33N 39°43' W 075°31'1 0.8
2015-Feb-22 03:34N 39°43' W 075°32'0 0.2
2015-Feb-22 02:33N 39°43' W 075°31'0 0.0
2015-Feb-22 01:34N 39°43' W 075°31'0 0.0
2015-Feb-22 00:33N 39°43' W 075°31'0 0.0
2015-Feb-21 23:33N 39°43' W 075°31'0 0.0
2015-Feb-21 22:34N 39°43' W 075°31'0 0.0
2015-Feb-21 21:34N 39°43' W 075°31'0 0.0
2015-Feb-21 20:34N 39°43' W 075°31'  
Track history (hours):
 
Tides and Currents Weather Stations Pressure Air Temp Water Temp Dewpoint Dewpoint Depression Visibility Wind Speed Wind Dir Waves Ship Positions

Capt. Harry

Owner: Wilmington Tug, Inc., New Castle, DE. More information available from US FCC via Universal Licensing System and Coast Guard Vessel Documentation Center.

Last reported at 2015-Mar-01 08:18 UTC. Time now 2015-Mar-04 15:20 UTC.
Position N 39°53' W 075°11'.

Type: Tug. MMSI: 367012530.

Date/timePositionNaut miles runAvg speedWind from/ knotsBaromVisibWave heightAir tempDewpointWater temp
2015-Mar-01 08:18N 39°53' W 075°11'0 0.0
2015-Mar-01 07:33N 39°53' W 075°11'0 0.0
2015-Mar-01 06:33N 39°53' W 075°11'0 0.0
2015-Mar-01 05:33N 39°53' W 075°11'0 0.0
2015-Mar-01 04:33N 39°53' W 075°11'0 0.0
2015-Mar-01 03:33N 39°53' W 075°11'0 0.0
2015-Mar-01 02:33N 39°53' W 075°11'0 0.0
2015-Mar-01 01:33N 39°53' W 075°11'0 0.0
2015-Mar-01 00:33N 39°53' W 075°11'0 0.0
2015-Feb-28 23:33N 39°53' W 075°11'0 0.0
2015-Feb-28 22:33N 39°53' W 075°11'0 0.0
2015-Feb-28 21:33N 39°53' W 075°11'0 0.0
2015-Feb-28 20:33N 39°53' W 075°11'0 0.0
2015-Feb-28 19:33N 39°53' W 075°11'0 0.0
2015-Feb-28 18:33N 39°53' W 075°11'0 0.0
2015-Feb-28 17:33N 39°53' W 075°11'0 0.0
2015-Feb-28 16:33N 39°53' W 075°11'0 0.0
2015-Feb-28 15:33N 39°53' W 075°11'0 0.0
2015-Feb-28 14:33N 39°53' W 075°11'0 0.0
2015-Feb-28 13:33N 39°53' W 075°11'0 0.0
2015-Feb-28 12:33N 39°53' W 075°11'0 0.0
2015-Feb-28 11:33N 39°53' W 075°11'0 0.0
2015-Feb-28 10:33N 39°53' W 075°11'0 0.0
2015-Feb-28 09:33N 39°53' W 075°11'0 0.0
2015-Feb-28 08:33N 39°53' W 075°11'0 0.0
2015-Feb-28 07:33N 39°53' W 075°11'0 0.0
2015-Feb-28 06:33N 39°53' W 075°11'0 0.0
2015-Feb-28 05:33N 39°53' W 075°11'0 0.0
2015-Feb-28 04:33N 39°53' W 075°11'0 0.0
2015-Feb-28 03:33N 39°53' W 075°11'0 0.0
2015-Feb-28 02:33N 39°53' W 075°11'0 0.0
2015-Feb-28 01:33N 39°53' W 075°11'0 0.0
2015-Feb-28 00:33N 39°53' W 075°11'0 0.0
2015-Feb-27 23:33N 39°53' W 075°11'0 0.0
2015-Feb-27 22:33N 39°53' W 075°11'0 0.0
2015-Feb-27 21:33N 39°53' W 075°11'0 0.0
2015-Feb-27 20:33N 39°53' W 075°11'0 0.0
2015-Feb-27 19:33N 39°53' W 075°11'2 1.8
2015-Feb-27 18:33N 39°53' W 075°09'7 6.8
2015-Feb-27 17:33N 39°59' W 075°04'1 0.7
2015-Feb-27 16:33N 39°59' W 075°05'0 0.0
2015-Feb-27 15:33N 39°59' W 075°05'0 0.0
2015-Feb-27 14:33N 39°59' W 075°05'0 0.0
2015-Feb-27 13:33N 39°59' W 075°05'5 4.6
2015-Feb-27 12:33N 39°55' W 075°08'6 5.7
2015-Feb-27 11:33N 39°51' W 075°14'1 0.7
2015-Feb-27 10:33N 39°51' W 075°15'1 1.0
2015-Feb-27 09:33N 39°51' W 075°16'0 0.0
2015-Feb-27 08:33N 39°51' W 075°16'0 0.0
2015-Feb-27 07:33N 39°51' W 075°16'0 0.0
2015-Feb-27 06:33N 39°51' W 075°16'0 0.0
2015-Feb-27 05:33N 39°51' W 075°16'0 0.0
2015-Feb-27 04:33N 39°51' W 075°16'0 0.4
2015-Feb-27 03:33N 39°51' W 075°16'0 0.0
2015-Feb-27 02:33N 39°51' W 075°16'1 1.3
2015-Feb-27 01:33N 39°51' W 075°18'2 1.7
2015-Feb-27 00:33N 39°51' W 075°16'0 0.0
2015-Feb-26 23:33N 39°51' W 075°16'0 0.0
2015-Feb-26 22:33N 39°51' W 075°16'0 0.0
2015-Feb-26 21:33N 39°51' W 075°16'3 2.8
2015-Feb-26 20:33N 39°51' W 075°19'3 2.9
2015-Feb-26 19:33N 39°50' W 075°22'2 1.8
2015-Feb-26 18:33N 39°49' W 075°24'0 0.5
2015-Feb-26 17:33N 39°49' W 075°25'0 0.0
2015-Feb-26 16:33N 39°49' W 075°25'0 0.0
2015-Feb-26 15:33N 39°49' W 075°25'0 0.0
2015-Feb-26 14:33N 39°49' W 075°25'0 0.0
2015-Feb-26 13:33N 39°49' W 075°25'1 1.0
2015-Feb-26 12:33N 39°49' W 075°24'0 0.5
2015-Feb-26 11:33N 39°49' W 075°23'1 1.4
2015-Feb-26 10:33N 39°48' W 075°25'0 0.2
2015-Feb-26 09:33N 39°49' W 075°25'0 0.0
2015-Feb-26 08:33N 39°49' W 075°25'3 2.5
2015-Feb-26 07:31N 39°50' W 075°22'5 2.5
2015-Feb-26 05:33N 39°51' W 075°16'0 0.0
2015-Feb-26 04:33N 39°51' W 075°16'0 0.0
2015-Feb-26 03:24N 39°51' W 075°16'0 0.2
2015-Feb-26 02:33N 39°51' W 075°16'2 1.8
2015-Feb-26 01:33N 39°51' W 075°14'5 4.7
2015-Feb-26 00:33N 39°51' W 075°20'4 4.1
2015-Feb-25 23:33N 39°49' W 075°24'1 1.0
2015-Feb-25 22:33N 39°49' W 075°23'1 0.9
2015-Feb-25 21:33N 39°49' W 075°24'6 5.8
2015-Feb-25 20:33N 39°45' W 075°30'2 1.9
2015-Feb-25 19:33N 39°43' W 075°31'0 0.3
2015-Feb-25 18:33N 39°43' W 075°31'0 0.0
2015-Feb-25 17:33N 39°43' W 075°31'0 0.0
2015-Feb-25 16:33N 39°43' W 075°31'0 0.0
2015-Feb-25 15:33N 39°43' W 075°31'0 0.0
2015-Feb-25 14:33N 39°43' W 075°31'0 0.0
2015-Feb-25 13:33N 39°43' W 075°31'0 0.0
2015-Feb-25 12:33N 39°43' W 075°31'0 0.0
2015-Feb-25 11:33N 39°43' W 075°31'0 0.0
2015-Feb-25 10:33N 39°43' W 075°31'0 0.0
2015-Feb-25 09:33N 39°43' W 075°31'0 0.0
2015-Feb-25 08:33N 39°43' W 075°31'0 0.0
2015-Feb-25 07:33N 39°43' W 075°31'0 0.0
2015-Feb-25 06:33N 39°43' W 075°31'0 0.0
2015-Feb-25 05:33N 39°43' W 075°31'0 0.0
2015-Feb-25 04:33N 39°43' W 075°31'0 0.0
2015-Feb-25 03:33N 39°43' W 075°31'0 0.0
2015-Feb-25 02:33N 39°43' W 075°31'0 0.0
2015-Feb-25 01:33N 39°43' W 075°31'0 0.0
2015-Feb-25 00:33N 39°43' W 075°31'0 0.0
2015-Feb-24 23:33N 39°43' W 075°31'0 0.0
2015-Feb-24 22:33N 39°43' W 075°31'0 0.0
2015-Feb-24 21:33N 39°43' W 075°31'0 0.3
2015-Feb-24 20:33N 39°43' W 075°31'0 0.3
2015-Feb-24 19:33N 39°43' W 075°31'0 0.0
2015-Feb-24 18:33N 39°43' W 075°31'2 2.2
2015-Feb-24 17:33N 39°41' W 075°31'7 6.6
2015-Feb-24 16:33N 39°35' W 075°35'0 0.0
2015-Feb-24 15:33N 39°35' W 075°35'1 1.0
2015-Feb-24 14:33N 39°35' W 075°34'9 8.9
2015-Feb-24 13:33N 39°43' W 075°31'0 0.0
2015-Feb-24 12:33N 39°43' W 075°31'0 0.0
2015-Feb-24 11:33N 39°43' W 075°31'0 0.0
2015-Feb-24 10:33N 39°43' W 075°31'0 0.0
2015-Feb-24 09:33N 39°43' W 075°31'0 0.0
2015-Feb-24 08:33N 39°43' W 075°31'0 0.0
2015-Feb-24 07:33N 39°43' W 075°31'0 0.2
2015-Feb-24 06:33N 39°43' W 075°31'0 0.4
2015-Feb-24 05:33N 39°43' W 075°32'0 0.0
2015-Feb-24 04:33N 39°43' W 075°32'0 0.0
2015-Feb-24 03:33N 39°43' W 075°32'0 0.0
2015-Feb-24 02:33N 39°43' W 075°32'0 0.0
2015-Feb-24 01:33N 39°43' W 075°32'0 0.0
2015-Feb-24 00:33N 39°43' W 075°32'0 0.0
2015-Feb-23 23:33N 39°43' W 075°32'0 0.0
2015-Feb-23 22:33N 39°43' W 075°32'0 0.0
2015-Feb-23 21:33N 39°43' W 075°32'0 0.0
2015-Feb-23 20:33N 39°43' W 075°32'0 0.0
2015-Feb-23 19:33N 39°43' W 075°32'1 0.5
2015-Feb-23 18:34N 39°43' W 075°31'0 0.5
2015-Feb-23 17:33N 39°43' W 075°31'0 0.4
2015-Feb-23 16:33N 39°43' W 075°31'0 0.0
2015-Feb-23 15:33N 39°43' W 075°31'0 0.0
2015-Feb-23 14:33N 39°43' W 075°31'0 0.0
2015-Feb-23 13:33N 39°43' W 075°31'0 0.0
2015-Feb-23 12:33N 39°43' W 075°31'0 0.0
2015-Feb-23 11:33N 39°43' W 075°31'0 0.0
2015-Feb-23 10:33N 39°43' W 075°31'0 0.0
2015-Feb-23 09:33N 39°43' W 075°31'0 0.0
2015-Feb-23 08:33N 39°43' W 075°31'0 0.0
2015-Feb-23 07:33N 39°43' W 075°31'0 0.0
2015-Feb-23 06:33N 39°43' W 075°31'0 0.0
2015-Feb-23 05:33N 39°43' W 075°31'0 0.0
2015-Feb-23 04:33N 39°43' W 075°31'0 0.4
2015-Feb-23 03:33N 39°43' W 075°31'0 0.2
2015-Feb-23 02:33N 39°43' W 075°31'0 0.2
2015-Feb-23 01:33N 39°43' W 075°31'0 0.0
2015-Feb-23 00:33N 39°43' W 075°31'0 0.0
2015-Feb-22 23:33N 39°43' W 075°31'0 0.2
2015-Feb-22 22:33N 39°43' W 075°31'1 1.4
2015-Feb-22 21:33N 39°42' W 075°31'1 1.4
2015-Feb-22 20:33N 39°43' W 075°31'0 0.3
2015-Feb-22 19:33N 39°43' W 075°31'0 0.1
2015-Feb-22 18:33N 39°43' W 075°31'7 6.6
2015-Feb-22 17:33N 39°48' W 075°25'1 0.5
2015-Feb-22 16:33N 39°48' W 075°25'1 0.7
2015-Feb-22 15:33N 39°49' W 075°25'0 0.0
2015-Feb-22 14:33N 39°49' W 075°25'0 0.4
2015-Feb-22 13:33N 39°48' W 075°25'0 0.0
2015-Feb-22 12:33N 39°48' W 075°25'0 0.0
2015-Feb-22 11:33N 39°48' W 075°25'0 0.0
2015-Feb-22 10:33N 39°48' W 075°25'0 0.0
2015-Feb-22 09:33N 39°48' W 075°25'0 0.0
2015-Feb-22 08:33N 39°48' W 075°25'0 0.0
2015-Feb-22 07:33N 39°48' W 075°25'0 0.0
2015-Feb-22 06:33N 39°48' W 075°25'1 1.2
2015-Feb-22 05:33N 39°48' W 075°27'6 5.7
2015-Feb-22 04:33N 39°43' W 075°31'1 0.8
2015-Feb-22 03:34N 39°43' W 075°32'0 0.2
2015-Feb-22 02:33N 39°43' W 075°31'0 0.0
2015-Feb-22 01:34N 39°43' W 075°31'0 0.0
2015-Feb-22 00:33N 39°43' W 075°31'0 0.0
2015-Feb-21 23:33N 39°43' W 075°31'0 0.0
2015-Feb-21 22:34N 39°43' W 075°31'0 0.0
2015-Feb-21 21:34N 39°43' W 075°31'0 0.0
2015-Feb-21 20:34N 39°43' W 075°31'  

Dump ship's entire track history